Terminal Aerodrome Forecast
Issued by NWS

Home | Current Version | Previous Version | Text Only | Print | Product List | Glossary Off
Versions: 1 2 3 4 5 6 7 8 9 10 11 12 13 14 15 16 17 18 19 20 21 22 23 24 25 26 27 28 29 30 31 32 33 34 35 36 37 38 39 40 41 42 43 44

000
FTUS43 KLOT 270900 AAA
TAFGYY
TAF AMD
KGYY 270900Z 2709/2806 24008KT P6SM SKC
     FM271400 27016G25KT P6SM FEW050
     FM272200 28014G23KT P6SM BKN040
     FM280100 28010KT P6SM VCSH OVC040=

USA.gov is the U.S. government's official web portal to all federal, state and local government web resources and services.